Impacts METAR Board
IDs:

KTPA - Tampa Intl Arpt, FL, US

Updated at: 1200 UTC 05 Apr 2020
Potential Impact None Slight Moderate High
Time 05/00Z 05/01Z 05/02Z 05/03Z 05/04Z 05/05Z 05/06Z 05/07Z 05/08Z 05/09Z 05/10Z 05/11Z 05/12Z
Temp74 72 72 69 69 69 70 71 71 70 70 70 70
Dewpt55 57 57 58 57 57 58 58 58 57 58 59 59
Altim29.94 29.95 29.96 29.96 29.97 29.95 29.94 29.93 29.92 29.92 29.91 29.95 29.98
VIS10 10 10 10 10 10 10 10 10 10 10 10 10
CIG170 140 230 230 -- -- -- -- -- -- 120 120 110
CoverOVCBKNBKNBKNFEWFEWFEWFEWFEWFEWBKNBKNOVC
FltCatVFRVFRVFRVFRVFRVFRVFRVFRVFRVFRVFRVFRVFR
WX--------------------------
WDir2503103303600020070702036040
WSpd7 4 3 4 0 0 4 0 4 3 3 3 3
WGst-- -- -- -- -- -- -- -- -- -- -- -- --
Raw hourly METARs
KTPA 042353Z 25007KT 10SM BKN170 OVC300 23/13 A2994 RMK AO2 SLP138 T02330128 10278 20233 51017
KTPA 050053Z 31004KT 10SM BKN140 22/14 A2995 RMK AO2 SLP142 T02220139
KTPA 050153Z 33003KT 10SM SCT130 BKN230 22/14 A2996 RMK AO2 SLP143 T02220139
KTPA 050253Z 36004KT 10SM FEW130 BKN230 21/14 A2996 RMK AO2 SLP143 T02060144 50005
KTPA 050353Z 00000KT 10SM FEW150 21/14 A2997 RMK AO2 SLP146 T02060139
KTPA 050453Z 00000KT 10SM FEW150 21/14 A2995 RMK AO2 SLP140 T02060139 402780167
KTPA 050553Z 02004KT 10SM FEW150 21/14 A2994 RMK AO2 SLP138 T02110144 10233 20200 58005
KTPA 050653Z 00000KT 10SM FEW150 22/14 A2993 RMK AO2 SLP134 T02170144
KTPA 050753Z 07004KT 10SM FEW150 22/14 A2992 RMK AO2 SLP131 T02170144
KTPA 050853Z 07003KT 10SM FEW150 21/14 A2992 RMK AO2 SLP130 T02110139 56008
KTPA 050953Z 02003KT 10SM BKN120 21/14 A2991 RMK AO2 SLP129 T02110144
KTPA 051053Z 36003KT 10SM FEW090 BKN120 21/15 A2995 RMK AO2 SLP143 T02110150
KTPA 051153Z 04003KT 10SM FEW024 SCT080 BKN110 OVC200 21/15 A2998 RMK AO2 SLP150 T02110150 10217 20206 53020



Page loaded:  12:15 UTC  |   05:15 AM Pacific  |   06:15 AM Mountain  |   07:15 AM Central  |   08:15 AM Eastern

 

ADVISORIES

FORECASTS

FORECASTS

OBSERVATIONS

USER TOOLS

ABOUT US